Time;durP1;ratioP1;P1;durP2;ratioP2;P2;SDS_P1;SDS_P2;PMS_P1;PMS_P2;Temp;Humidity;BMP_temperature;BMP_pressure;BME280_temperature;BME280_humidity;BME280_pressure;Samples;Min_cycle;Max_cycle;Signal;HPM_P1;HPM_P2
2021/08/24 04:52:34;;;;;;;8.43;3.67;;;;;;;;;;5035680;23;20517;-70
2021/08/24 04:55:01;;;;;;;6.65;3.95;;;;;;;;;;4993264;28;20085;-70
2021/08/24 04:57:28;;;;;;;9.93;3.72;;;;;;;;;;4993558;28;20042;-70
2021/08/24 04:59:56;;;;;;;5.95;3.42;;;;;;;;;;4993188;28;20050;-70
2021/08/24 05:02:23;;;;;;;8.30;3.75;;;;;;;;;;4991918;28;20441;-70
2021/08/24 05:04:50;;;;;;;4.90;3.70;;;;;;;;;;4992789;28;20062;-71
2021/08/24 05:07:25;;;;;;;6.15;2.63;;;;;;;;;;5004784;23;20050;-89
2021/08/24 05:09:54;;;;;;;6.97;3.30;;;;;;;;;;4996355;28;20046;-90
2021/08/24 05:12:22;;;;;;;7.70;2.70;;;;;;;;;;4994257;28;20050;-90
2021/08/24 05:14:49;;;;;;;5.10;3.67;;;;;;;;;;5003392;28;20034;-90
2021/08/24 05:17:17;;;;;;;3.90;3.30;;;;;;;;;;5015380;28;20046;-89
2021/08/24 05:19:44;;;;;;;6.22;2.50;;;;;;;;;;4998496;23;20083;-70
2021/08/24 05:22:12;;;;;;;7.13;2.67;;;;;;;;;;4972995;28;20046;-70
2021/08/24 05:24:39;;;;;;;7.15;2.63;;;;;;;;;;4973104;28;20043;-71
2021/08/24 05:27:08;;;;;;;10.43;2.67;;;;;;;;;;4973108;28;20507;-71
2021/08/24 05:29:36;;;;;;;2.95;2.22;;;;;;;;;;4973314;28;20046;-71
2021/08/24 05:32:03;;;;;;;6.93;2.47;;;;;;;;;;4972850;28;20119;-70
2021/08/24 05:34:30;;;;;;;5.82;2.55;;;;;;;;;;4973180;28;20043;-71
2021/08/24 05:36:57;;;;;;;5.90;3.05;;;;;;;;;;4973586;28;20038;-70
2021/08/24 05:39:25;;;;;;;5.55;2.70;;;;;;;;;;4963090;28;20039;-70
2021/08/24 05:41:52;;;;;;;5.05;2.65;;;;;;;;;;4971796;28;20107;-71
2021/08/24 05:44:21;;;;;;;3.83;2.22;;;;;;;;;;4964559;28;20054;-72
2021/08/24 05:46:48;;;;;;;10.77;2.70;;;;;;;;;;4953196;29;20051;-70
2021/08/24 05:49:15;;;;;;;5.70;2.50;;;;;;;;;;4952749;29;20047;-73
2021/08/24 05:51:43;;;;;;;4.85;2.30;;;;;;;;;;4955111;28;20051;-71
2021/08/24 05:54:10;;;;;;;5.05;2.30;;;;;;;;;;4958373;28;20507;-71
2021/08/24 05:56:37;;;;;;;6.10;2.10;;;;;;;;;;4963180;28;20530;-71
2021/08/24 05:59:05;;;;;;;3.25;2.00;;;;;;;;;;4959196;28;20047;-72
2021/08/24 06:01:33;;;;;;;4.32;2.42;;;;;;;;;;4963669;28;20046;-72
2021/08/24 06:04:01;;;;;;;5.22;2.53;;;;;;;;;;4962384;28;20046;-71
2021/08/24 06:06:29;;;;;;;3.45;2.30;;;;;;;;;;4963936;28;20055;-71
2021/08/24 06:08:57;;;;;;;4.93;2.40;;;;;;;;;;4964915;28;20053;-71
2021/08/24 06:11:26;;;;;;;4.22;2.33;;;;;;;;;;4968370;28;20416;-71
2021/08/24 06:13:53;;;;;;;7.30;2.38;;;;;;;;;;4975123;28;20070;-70
2021/08/24 06:16:21;;;;;;;5.32;1.95;;;;;;;;;;4952330;29;20491;-71
2021/08/24 06:18:49;;;;;;;5.32;2.13;;;;;;;;;;4952436;29;20539;-71
2021/08/24 06:21:17;;;;;;;5.47;2.30;;;;;;;;;;4953110;29;20491;-71
2021/08/24 06:23:45;;;;;;;4.85;2.63;;;;;;;;;;4953294;28;20086;-73
2021/08/24 06:26:12;;;;;;;4.43;2.20;;;;;;;;;;4966462;28;20051;-71
2021/08/24 06:28:40;;;;;;;7.35;2.30;;;;;;;;;;4964300;28;20410;-72
2021/08/24 06:31:07;;;;;;;7.00;2.50;;;;;;;;;;4963211;28;20458;-72
2021/08/24 06:33:36;;;;;;;8.38;2.15;;;;;;;;;;4960895;28;20114;-71
2021/08/24 06:36:06;;;;;;;6.10;2.25;;;;;;;;;;4969345;28;20050;-72
2021/08/24 06:38:33;;;;;;;3.17;2.30;;;;;;;;;;4956818;28;20050;-72
2021/08/24 06:41:00;;;;;;;5.22;2.47;;;;;;;;;;4957982;28;20039;-71
2021/08/24 06:43:28;;;;;;;2.88;2.45;;;;;;;;;;4967723;28;20049;-71
2021/08/24 06:45:55;;;;;;;3.17;2.28;;;;;;;;;;4956766;28;20038;-71
2021/08/24 06:48:22;;;;;;;4.57;1.77;;;;;;;;;;4956853;28;20062;-71
2021/08/24 06:50:51;;;;;;;9.45;2.28;;;;;;;;;;4966800;28;20050;-71
2021/08/24 06:53:21;;;;;;;2.28;1.98;;;;;;;;;;4958838;28;20406;-72
2021/08/24 06:55:48;;;;;;;4.20;2.22;;;;;;;;;;4962788;28;20411;-71
2021/08/24 06:58:15;;;;;;;2.67;2.17;;;;;;;;;;4957942;28;20513;-70
2021/08/24 07:00:45;;;;;;;3.03;2.00;;;;;;;;;;4952173;29;20047;-71
2021/08/24 07:03:13;;;;;;;4.05;2.47;;;;;;;;;;4952453;29;20031;-71
2021/08/24 07:05:42;;;;;;;5.80;2.30;;;;;;;;;;4952020;28;20071;-71
2021/08/24 07:08:15;;;;;;;4.55;2.38;;;;;;;;;;4951121;29;20061;-71
2021/08/24 07:10:44;;;;;;;3.25;1.90;;;;;;;;;;4954035;28;20399;-72
2021/08/24 07:13:11;;;;;;;4.30;2.30;;;;;;;;;;4975266;28;20046;-72
2021/08/24 07:15:40;;;;;;;3.00;1.90;;;;;;;;;;4970397;28;20047;-71
2021/08/24 07:18:37;;;;;;;2.90;2.25;;;;;;;;;;4956640;28;20071;-71
2021/08/24 07:21:04;;;;;;;5.25;2.58;;;;;;;;;;4951624;29;20404;-71
2021/08/24 07:23:32;;;;;;;4.53;2.08;;;;;;;;;;4951647;29;20118;-70
2021/08/24 07:26:02;;;;;;;3.00;1.95;;;;;;;;;;4952019;28;20085;-73
2021/08/24 07:28:29;;;;;;;5.15;2.30;;;;;;;;;;4951798;29;20050;-71
2021/08/24 07:30:56;;;;;;;5.70;2.05;;;;;;;;;;4951763;29;20215;-71
2021/08/24 07:33:24;;;;;;;4.78;2.10;;;;;;;;;;4951580;29;20154;-71
2021/08/24 07:35:51;;;;;;;5.15;2.22;;;;;;;;;;4952021;29;20491;-72
2021/08/24 07:38:19;;;;;;;6.03;2.42;;;;;;;;;;4952174;29;20523;-73
2021/08/24 07:40:47;;;;;;;6.68;2.20;;;;;;;;;;4951311;29;20047;-71
2021/08/24 07:43:16;;;;;;;3.65;2.80;;;;;;;;;;4952025;29;20114;-73
2021/08/24 07:45:44;;;;;;;3.75;2.13;;;;;;;;;;4951518;29;20047;-72
2021/08/24 07:48:11;;;;;;;3.42;2.25;;;;;;;;;;4952196;28;20035;-73
2021/08/24 07:50:39;;;;;;;4.32;2.70;;;;;;;;;;4961870;28;20051;-71
2021/08/24 07:53:06;;;;;;;5.93;2.30;;;;;;;;;;4957046;28;20075;-72
2021/08/24 07:55:35;;;;;;;4.75;2.30;;;;;;;;;;4967365;28;20082;-72
2021/08/24 07:58:02;;;;;;;3.53;2.00;;;;;;;;;;4953737;28;20039;-71
2021/08/24 08:00:31;;;;;;;3.28;2.45;;;;;;;;;;4960712;28;20039;-72
2021/08/24 08:02:58;;;;;;;4.18;2.50;;;;;;;;;;4958500;28;20591;-72
2021/08/24 08:05:25;;;;;;;3.45;2.17;;;;;;;;;;4967798;28;20068;-71
2021/08/24 08:07:53;;;;;;;6.32;2.30;;;;;;;;;;4965473;28;20043;-72
2021/08/24 08:10:20;;;;;;;3.33;2.25;;;;;;;;;;4963988;28;20131;-72
2021/08/24 08:12:47;;;;;;;3.78;2.50;;;;;;;;;;4964048;28;20043;-72
2021/08/24 08:15:15;;;;;;;2.47;1.85;;;;;;;;;;4970374;28;20051;-72
2021/08/24 08:17:43;;;;;;;6.85;2.05;;;;;;;;;;4954833;29;20042;-72
2021/08/24 08:20:11;;;;;;;3.88;2.30;;;;;;;;;;4954679;29;20431;-71
2021/08/24 08:22:39;;;;;;;2.72;2.10;;;;;;;;;;4954466;29;20346;-70
2021/08/24 08:25:07;;;;;;;6.93;1.90;;;;;;;;;;4954535;29;20054;-70
2021/08/24 08:27:35;;;;;;;5.10;2.28;;;;;;;;;;4954514;29;20663;-70
2021/08/24 08:30:02;;;;;;;4.55;2.25;;;;;;;;;;4954562;29;20043;-72
2021/08/24 08:32:31;;;;;;;2.30;2.10;;;;;;;;;;4954309;29;20047;-71
2021/08/24 08:35:00;;;;;;;5.38;2.50;;;;;;;;;;4954611;29;20047;-72
2021/08/24 08:37:28;;;;;;;8.40;2.63;;;;;;;;;;4958919;28;20083;-71
2021/08/24 08:39:55;;;;;;;6.90;2.58;;;;;;;;;;4954533;29;20058;-72
2021/08/24 08:42:33;;;;;;;4.15;2.40;;;;;;;;;;4960306;28;20409;-71
2021/08/24 08:45:03;;;;;;;4.65;2.80;;;;;;;;;;4954305;29;20047;-72
2021/08/24 08:47:35;;;;;;;6.28;2.50;;;;;;;;;;4954085;29;20085;-71
2021/08/24 08:50:07;;;;;;;2.50;2.28;;;;;;;;;;4954243;29;20262;-72
2021/08/24 08:52:37;;;;;;;4.55;2.58;;;;;;;;;;4958008;28;20061;-71
2021/08/24 08:55:08;;;;;;;3.85;2.60;;;;;;;;;;4954097;29;20058;-71
2021/08/24 08:57:38;;;;;;;4.72;2.47;;;;;;;;;;4955041;28;20094;-72
2021/08/24 09:00:10;;;;;;;3.35;2.28;;;;;;;;;;4956771;28;20047;-71
2021/08/24 09:02:42;;;;;;;5.90;2.90;;;;;;;;;;4963252;28;20052;-71
2021/08/24 09:05:11;;;;;;;4.57;2.20;;;;;;;;;;4960546;28;20081;-71
2021/08/24 09:07:40;;;;;;;3.08;2.42;;;;;;;;;;4963532;28;20507;-70
2021/08/24 09:10:09;;;;;;;3.72;2.80;;;;;;;;;;4968251;28;20039;-71
2021/08/24 09:12:37;;;;;;;5.28;2.70;;;;;;;;;;4979233;28;20042;-70
2021/08/24 09:15:06;;;;;;;3.38;2.63;;;;;;;;;;4960236;28;20043;-71
2021/08/24 09:17:35;;;;;;;3.72;2.75;;;;;;;;;;4966882;28;20047;-70
2021/08/24 09:20:05;;;;;;;5.30;2.80;;;;;;;;;;4959180;28;20059;-71
2021/08/24 09:22:34;;;;;;;5.78;2.60;;;;;;;;;;4969406;28;20046;-70
2021/08/24 09:25:02;;;;;;;7.30;2.90;;;;;;;;;;4959505;28;20046;-71
2021/08/24 09:27:38;;;;;;;3.83;2.83;;;;;;;;;;4963730;28;20051;-70
2021/08/24 09:30:06;;;;;;;8.73;2.90;;;;;;;;;;4965939;28;20402;-70
2021/08/24 09:32:33;;;;;;;6.95;2.88;;;;;;;;;;4964126;28;20377;-71
2021/08/24 09:35:07;;;;;;;4.15;2.60;;;;;;;;;;4967591;28;20047;-71
2021/08/24 09:37:38;;;;;;;5.93;3.03;;;;;;;;;;4956300;28;20074;-70
2021/08/24 09:40:06;;;;;;;3.33;2.80;;;;;;;;;;4967166;28;20299;-70
2021/08/24 09:42:35;;;;;;;6.47;2.75;;;;;;;;;;4961560;28;20442;-70
2021/08/24 09:45:07;;;;;;;5.75;2.95;;;;;;;;;;4964523;28;20046;-72
2021/08/24 09:47:34;;;;;;;6.05;3.25;;;;;;;;;;4964383;28;20503;-71
2021/08/24 09:50:05;;;;;;;4.22;2.55;;;;;;;;;;4972268;28;20049;-71
2021/08/24 09:52:37;;;;;;;3.80;2.95;;;;;;;;;;4956738;28;20118;-71
2021/08/24 09:55:08;;;;;;;4.57;3.10;;;;;;;;;;4964302;28;20098;-72
2021/08/24 09:57:38;;;;;;;3.45;2.90;;;;;;;;;;4954711;28;20500;-71
2021/08/24 10:00:07;;;;;;;5.47;3.42;;;;;;;;;;4958456;28;20046;-71
2021/08/24 10:02:40;;;;;;;4.15;3.03;;;;;;;;;;4955405;28;20051;-71
2021/08/24 10:05:10;;;;;;;3.55;3.15;;;;;;;;;;4955556;28;20109;-70
2021/08/24 10:07:40;;;;;;;6.40;3.50;;;;;;;;;;4952446;28;20488;-70
2021/08/24 10:10:11;;;;;;;4.75;3.13;;;;;;;;;;4961783;28;20043;-70
2021/08/24 10:12:38;;;;;;;4.90;3.40;;;;;;;;;;4958333;28;20121;-71
2021/08/24 10:15:23;;;;;;;4.45;3.35;;;;;;;;;;4962536;28;20463;-71
2021/08/24 10:17:57;;;;;;;5.13;3.05;;;;;;;;;;4957010;28;20043;-70
2021/08/24 10:20:27;;;;;;;4.65;3.10;;;;;;;;;;4970010;28;20055;-71
2021/08/24 10:22:54;;;;;;;4.45;2.97;;;;;;;;;;4971475;28;20487;-73
2021/08/24 10:25:24;;;;;;;5.75;3.25;;;;;;;;;;4952016;28;20531;-70
2021/08/24 10:27:58;;;;;;;5.63;2.92;;;;;;;;;;4962068;28;20039;-71
2021/08/24 10:30:38;;;;;;;4.40;3.20;;;;;;;;;;4954901;28;20077;-71
2021/08/24 10:33:05;;;;;;;5.10;3.60;;;;;;;;;;4966422;28;20038;-70
2021/08/24 10:35:35;;;;;;;3.80;2.92;;;;;;;;;;4970697;28;20044;-72
2021/08/24 10:38:03;;;;;;;4.05;2.97;;;;;;;;;;4971239;28;20039;-71
2021/08/24 10:40:41;;;;;;;4.85;3.28;;;;;;;;;;4966951;28;20047;-70
2021/08/24 10:43:23;;;;;;;3.28;2.97;;;;;;;;;;4967805;28;20038;-73
2021/08/24 10:46:06;;;;;;;4.80;2.90;;;;;;;;;;4965379;28;20072;-72
2021/08/24 10:48:36;;;;;;;4.53;2.83;;;;;;;;;;4965243;28;20043;-73
2021/08/24 10:51:07;;;;;;;4.20;3.42;;;;;;;;;;4969520;28;20043;-72
2021/08/24 10:53:43;;;;;;;7.50;2.97;;;;;;;;;;4968276;28;20117;-70
2021/08/24 10:56:16;;;;;;;6.43;3.55;;;;;;;;;;4952367;28;20467;-71
2021/08/24 10:58:48;;;;;;;5.90;3.53;;;;;;;;;;4955511;28;20121;-71
2021/08/24 11:01:18;;;;;;;5.22;3.70;;;;;;;;;;4971105;28;20396;-71
2021/08/24 11:04:00;;;;;;;6.13;3.63;;;;;;;;;;4982455;28;20045;-70
2021/08/24 11:06:31;;;;;;;7.13;3.80;;;;;;;;;;4966465;28;20127;-70
2021/08/24 11:09:02;;;;;;;6.30;3.95;;;;;;;;;;4968847;28;20054;-71
2021/08/24 11:11:35;;;;;;;4.20;3.25;;;;;;;;;;4973880;28;20133;-72
2021/08/24 11:14:06;;;;;;;4.45;3.40;;;;;;;;;;4967537;28;20414;-71
2021/08/24 11:16:42;;;;;;;6.68;3.75;;;;;;;;;;4968870;28;20111;-71
2021/08/24 11:19:14;;;;;;;4.18;3.70;;;;;;;;;;5330123;23;20073;-68
2021/08/24 11:21:44;;;;;;;4.85;3.95;;;;;;;;;;4968354;28;20057;-69
2021/08/24 11:24:22;;;;;;;4.55;3.65;;;;;;;;;;4967205;28;20074;-68
2021/08/24 11:26:55;;;;;;;6.85;3.80;;;;;;;;;;4965743;28;20137;-66
2021/08/24 11:29:28;;;;;;;7.20;3.83;;;;;;;;;;4961401;28;20102;-66
2021/08/24 11:51:51;;;;;;;6.28;3.80;;;;;;;;;;4937660;29;20054;-67
2021/08/24 11:54:36;;;;;;;5.47;4.00;;;;;;;;;;4946446;28;20721;-67
2021/08/24 11:57:19;;;;;;;6.15;3.30;;;;;;;;;;4948182;29;20043;-67
2021/08/24 11:59:59;;;;;;;4.35;3.35;;;;;;;;;;4946250;28;20039;-67
2021/08/24 12:09:09;;;;;;;5.55;3.33;;;;;;;;;;4934689;29;20407;-66
2021/08/24 12:11:44;;;;;;;6.75;3.60;;;;;;;;;;4953462;29;20413;-66
2021/08/24 12:14:19;;;;;;;7.75;3.55;;;;;;;;;;4950778;28;20756;-66
2021/08/24 12:16:56;;;;;;;5.72;3.40;;;;;;;;;;4954059;29;20087;-66
2021/08/24 12:19:24;;;;;;;4.30;3.33;;;;;;;;;;4950509;28;20048;-66
2021/08/24 12:21:54;;;;;;;7.40;3.67;;;;;;;;;;4951506;29;20050;-67
2021/08/24 12:24:42;;;;;;;4.60;3.47;;;;;;;;;;4946422;29;20091;-67
2021/08/24 12:27:24;;;;;;;3.42;2.80;;;;;;;;;;4949424;28;20074;-67
2021/08/24 12:29:53;;;;;;;4.05;3.40;;;;;;;;;;4954512;28;20054;-67
2021/08/24 12:32:39;;;;;;;4.57;3.05;;;;;;;;;;4949752;29;20636;-67
2021/08/24 12:35:07;;;;;;;4.32;3.22;;;;;;;;;;4951956;29;20040;-68
2021/08/24 12:37:51;;;;;;;6.32;3.22;;;;;;;;;;4953454;29;20082;-68
2021/08/24 12:40:36;;;;;;;5.63;3.05;;;;;;;;;;4953108;29;20070;-68
2021/08/24 12:43:24;;;;;;;6.85;2.90;;;;;;;;;;4951619;29;20512;-68
2021/08/24 12:45:51;;;;;;;;;;;;;;;;;;4952432;29;20043;-68
2021/08/24 12:48:21;;;;;;;7.97;3.43;;;;;;;;;;4951881;28;19922;-68
2021/08/24 12:51:12;;;;;;;6.47;3.42;;;;;;;;;;4950673;29;20767;-68
2021/08/24 12:53:42;;;;;;;3.00;2.65;;;;;;;;;;4950793;29;20067;-68
2021/08/24 12:56:10;;;;;;;7.05;2.97;;;;;;;;;;4944625;29;20049;-68
2021/08/24 12:58:47;;;;;;;5.10;3.10;;;;;;;;;;4948138;28;20047;-68
2021/08/24 13:01:14;;;;;;;;;;;;;;;;;;4946813;29;20531;-68
2021/08/24 13:03:53;;;;;;;4.43;3.07;;;;;;;;;;4950915;29;19930;-67
2021/08/24 13:06:22;;;;;;;4.70;3.35;;;;;;;;;;4950879;29;20043;-68
2021/08/24 13:08:50;;;;;;;4.03;3.13;;;;;;;;;;4951133;28;20047;-68
2021/08/24 13:11:37;;;;;;;7.22;3.55;;;;;;;;;;4952369;29;20054;-68
2021/08/24 13:14:05;;;;;;;6.40;3.35;;;;;;;;;;4952656;29;20039;-68
2021/08/24 13:16:36;;;;;;;4.85;3.08;;;;;;;;;;4952424;29;20051;-68
2021/08/24 13:19:05;;;;;;;7.00;3.28;;;;;;;;;;4952177;28;20043;-68
2021/08/24 13:21:53;;;;;;;5.68;3.13;;;;;;;;;;4952415;29;20077;-66
2021/08/24 13:24:23;;;;;;;8.90;3.10;;;;;;;;;;4952781;29;20043;-67
2021/08/24 13:26:53;;;;;;;6.93;2.95;;;;;;;;;;4952785;29;20043;-66
2021/08/24 13:29:21;;;;;;;5.03;2.95;;;;;;;;;;4952468;28;20526;-66
2021/08/24 13:31:49;;;;;;;3.50;3.17;;;;;;;;;;4952456;29;20202;-67
2021/08/24 13:34:26;;;;;;;4.13;3.22;;;;;;;;;;4952358;29;20047;-67
2021/08/24 13:36:54;;;;;;;4.13;3.22;;;;;;;;;;4952743;29;20121;-67
2021/08/24 13:39:21;;;;;;;4.72;3.13;;;;;;;;;;4952409;28;20043;-67
2021/08/24 13:41:50;;;;;;;4.80;3.45;;;;;;;;;;4952317;29;20388;-67
2021/08/24 13:44:22;;;;;;;6.70;3.50;;;;;;;;;;4952455;29;20114;-67
2021/08/24 13:46:55;;;;;;;5.22;3.22;;;;;;;;;;4952257;29;20423;-68
2021/08/24 13:49:24;;;;;;;5.22;3.17;;;;;;;;;;4952293;28;20043;-68
2021/08/24 13:51:53;;;;;;;4.32;3.42;;;;;;;;;;4952019;29;20047;-68
2021/08/24 13:54:25;;;;;;;4.47;3.15;;;;;;;;;;4952342;29;20657;-68
2021/08/24 13:56:53;;;;;;;6.13;3.22;;;;;;;;;;4952443;29;20062;-68
2021/08/24 13:59:25;;;;;;;4.00;3.30;;;;;;;;;;4952118;28;20043;-68
2021/08/24 14:01:53;;;;;;;3.55;3.25;;;;;;;;;;4951348;28;20049;-68
2021/08/24 14:04:29;;;;;;;5.28;3.10;;;;;;;;;;4952350;29;20118;-68
2021/08/24 14:07:01;;;;;;;7.40;3.00;;;;;;;;;;4952133;29;20491;-68
2021/08/24 14:09:29;;;;;;;7.07;3.60;;;;;;;;;;4952186;28;20468;-68
2021/08/24 14:11:59;;;;;;;6.13;3.10;;;;;;;;;;4952657;29;20122;-68
2021/08/24 14:14:38;;;;;;;5.13;3.33;;;;;;;;;;4952350;29;20455;-68
2021/08/24 14:17:06;;;;;;;3.45;3.03;;;;;;;;;;4952303;29;20043;-68
2021/08/24 14:19:34;;;;;;;6.38;3.35;;;;;;;;;;4951508;28;20431;-68
2021/08/24 14:22:05;;;;;;;5.07;3.10;;;;;;;;;;4951711;29;20049;-68
2021/08/24 14:24:33;;;;;;;5.55;3.13;;;;;;;;;;4951938;29;20043;-68
2021/08/24 14:27:00;;;;;;;5.55;3.20;;;;;;;;;;4951745;29;20043;-67
2021/08/24 14:29:28;;;;;;;4.13;2.70;;;;;;;;;;4951234;28;20058;-67
2021/08/24 14:31:56;;;;;;;3.70;2.72;;;;;;;;;;4950140;29;20051;-67
2021/08/24 14:34:25;;;;;;;3.75;3.00;;;;;;;;;;4951166;29;20050;-67
2021/08/24 14:36:58;;;;;;;4.70;3.03;;;;;;;;;;4951504;29;20043;-67
2021/08/24 14:39:31;;;;;;;3.40;3.05;;;;;;;;;;4951138;28;20050;-67
2021/08/24 14:41:59;;;;;;;5.85;3.35;;;;;;;;;;4950916;29;20129;-67
2021/08/24 14:44:28;;;;;;;6.05;3.42;;;;;;;;;;4949118;29;20046;-67
2021/08/24 14:46:57;;;;;;;5.32;3.15;;;;;;;;;;4951332;29;20127;-66
2021/08/24 14:49:27;;;;;;;4.43;3.10;;;;;;;;;;4951308;28;20051;-67
2021/08/24 14:51:54;;;;;;;4.45;3.38;;;;;;;;;;4951327;29;20049;-67
2021/08/24 14:54:23;;;;;;;7.35;3.58;;;;;;;;;;4951243;29;20054;-67
2021/08/24 14:56:52;;;;;;;4.72;3.33;;;;;;;;;;4951093;29;20043;-67
2021/08/24 14:59:27;;;;;;;3.22;2.92;;;;;;;;;;4950931;28;20057;-67
2021/08/24 15:02:19;;;;;;;3.40;3.10;;;;;;;;;;4951004;29;20061;-67
2021/08/24 15:04:48;;;;;;;7.57;3.88;;;;;;;;;;4936965;29;20102;-67
2021/08/24 15:07:17;;;;;;;5.20;3.35;;;;;;;;;;4950896;29;20039;-67
2021/08/24 15:09:52;;;;;;;4.72;3.40;;;;;;;;;;4949852;28;20050;-67
2021/08/24 15:12:22;;;;;;;4.72;3.63;;;;;;;;;;4952206;28;20448;-68
2021/08/24 15:14:51;;;;;;;4.93;3.20;;;;;;;;;;4955217;29;20366;-67
2021/08/24 15:17:26;;;;;;;4.45;3.45;;;;;;;;;;4955037;29;20043;-67
2021/08/24 15:19:57;;;;;;;3.95;3.00;;;;;;;;;;4954902;28;20680;-67
2021/08/24 15:22:25;;;;;;;6.38;3.95;;;;;;;;;;4955153;29;20043;-66
2021/08/24 15:24:54;;;;;;;4.55;3.63;;;;;;;;;;4955204;29;20035;-67
2021/08/24 15:27:23;;;;;;;4.57;3.20;;;;;;;;;;4955211;29;20131;-67
2021/08/24 15:30:01;;;;;;;5.00;4.22;;;;;;;;;;4954962;28;20065;-67
2021/08/24 15:32:34;;;;;;;4.88;3.67;;;;;;;;;;4955049;29;20049;-67
2021/08/24 15:35:03;;;;;;;6.78;3.45;;;;;;;;;;4954607;29;20360;-67
2021/08/24 15:37:30;;;;;;;6.07;3.53;;;;;;;;;;4954580;29;20047;-67
2021/08/24 15:39:57;;;;;;;6.10;3.58;;;;;;;;;;4954651;28;20042;-67
2021/08/24 15:42:26;;;;;;;5.03;3.38;;;;;;;;;;4954872;29;20519;-67
2021/08/24 15:44:56;;;;;;;5.35;3.72;;;;;;;;;;4954301;29;20043;-67
2021/08/24 15:47:23;;;;;;;4.93;3.83;;;;;;;;;;4954337;29;20555;-67
2021/08/24 15:49:51;;;;;;;3.75;2.90;;;;;;;;;;4954154;28;20055;-67
2021/08/24 15:52:20;;;;;;;5.65;3.53;;;;;;;;;;4954278;29;20046;-67
2021/08/24 15:54:48;;;;;;;4.80;3.20;;;;;;;;;;4954212;29;20321;-69
2021/08/24 15:57:16;;;;;;;6.80;3.70;;;;;;;;;;4953792;29;20054;-69
2021/08/24 15:59:43;;;;;;;6.38;3.83;;;;;;;;;;4953679;28;20114;-69
2021/08/24 16:02:11;;;;;;;4.95;3.83;;;;;;;;;;4953964;29;20047;-69
2021/08/24 16:04:39;;;;;;;9.63;3.63;;;;;;;;;;4954207;29;20043;-66
2021/08/24 16:07:11;;;;;;;4.85;3.30;;;;;;;;;;4953475;29;20062;-68
2021/08/24 16:09:39;;;;;;;5.38;3.92;;;;;;;;;;4953788;28;20069;-67
2021/08/24 16:12:08;;;;;;;5.00;3.90;;;;;;;;;;4953745;29;20051;-67
2021/08/24 16:14:35;;;;;;;5.05;3.75;;;;;;;;;;4953543;29;20039;-67
2021/08/24 16:17:02;;;;;;;5.15;3.85;;;;;;;;;;4953564;29;20047;-67
2021/08/24 16:19:31;;;;;;;6.72;3.88;;;;;;;;;;4953207;28;20082;-68
2021/08/24 16:21:58;;;;;;;5.28;3.60;;;;;;;;;;4953736;29;20583;-67
2021/08/24 16:24:26;;;;;;;4.90;3.97;;;;;;;;;;4952430;28;20047;-67
2021/08/24 16:26:53;;;;;;;5.90;3.90;;;;;;;;;;4953798;29;20428;-67
2021/08/24 16:29:21;;;;;;;5.32;3.40;;;;;;;;;;4953544;28;20047;-67
2021/08/24 16:31:48;;;;;;;5.47;3.47;;;;;;;;;;4953445;29;20044;-67
2021/08/24 16:34:17;;;;;;;5.28;4.03;;;;;;;;;;4953572;29;20051;-67
2021/08/24 16:36:45;;;;;;;7.60;3.70;;;;;;;;;;4953436;29;20538;-67
2021/08/24 16:39:13;;;;;;;5.53;3.92;;;;;;;;;;4953199;28;20533;-67
2021/08/24 16:41:40;;;;;;;4.93;3.60;;;;;;;;;;4953222;29;20697;-67
2021/08/24 16:44:08;;;;;;;6.13;3.72;;;;;;;;;;4953609;29;20082;-67
2021/08/24 16:46:36;;;;;;;5.38;3.60;;;;;;;;;;4953706;29;20066;-67
2021/08/24 16:49:04;;;;;;;4.18;3.25;;;;;;;;;;4954332;28;20051;-67
2021/08/24 16:51:31;;;;;;;6.63;3.42;;;;;;;;;;4953657;29;20456;-67
2021/08/24 16:54:00;;;;;;;4.70;3.45;;;;;;;;;;4953591;29;20138;-67
2021/08/24 16:56:27;;;;;;;3.88;3.45;;;;;;;;;;4953542;29;20082;-67
2021/08/24 16:58:55;;;;;;;5.45;3.70;;;;;;;;;;4953415;28;20055;-67
2021/08/24 17:01:23;;;;;;;5.63;3.10;;;;;;;;;;4953421;29;20055;-67
2021/08/24 17:03:50;;;;;;;6.75;3.70;;;;;;;;;;4952971;29;20051;-67
2021/08/24 17:06:18;;;;;;;5.10;3.65;;;;;;;;;;4952449;29;20523;-67
2021/08/24 17:08:45;;;;;;;4.63;2.85;;;;;;;;;;4952486;28;20098;-67
2021/08/24 17:11:14;;;;;;;6.65;3.10;;;;;;;;;;4952536;29;20051;-68
2021/08/24 17:13:41;;;;;;;4.93;2.92;;;;;;;;;;4951311;29;20059;-67
2021/08/24 17:16:09;;;;;;;5.72;3.10;;;;;;;;;;4952345;29;20051;-67
2021/08/24 17:18:36;;;;;;;6.70;3.25;;;;;;;;;;4952939;28;20407;-68
2021/08/24 17:21:03;;;;;;;4.95;3.38;;;;;;;;;;4952268;29;20105;-67
2021/08/24 17:23:31;;;;;;;6.65;3.05;;;;;;;;;;4952321;29;20122;-68
2021/08/24 17:26:00;;;;;;;4.90;3.13;;;;;;;;;;4950937;29;20056;-68
2021/08/24 17:28:30;;;;;;;3.67;2.58;;;;;;;;;;4952157;28;20051;-68
2021/08/24 17:30:57;;;;;;;5.75;2.88;;;;;;;;;;4952360;29;20047;-67
2021/08/24 17:33:24;;;;;;;3.67;2.80;;;;;;;;;;4952149;29;20065;-68
2021/08/24 17:35:52;;;;;;;3.58;2.83;;;;;;;;;;4951774;28;20058;-67
2021/08/24 17:38:20;;;;;;;4.50;3.08;;;;;;;;;;4951713;28;20073;-68
2021/08/24 17:40:47;;;;;;;5.97;3.45;;;;;;;;;;4951741;29;20081;-68
2021/08/24 17:43:14;;;;;;;5.78;3.28;;;;;;;;;;4951943;29;20415;-68
2021/08/24 17:45:44;;;;;;;6.88;3.38;;;;;;;;;;4951745;29;20051;-68
2021/08/24 17:48:15;;;;;;;6.00;3.10;;;;;;;;;;4951725;29;20047;-68
2021/08/24 17:50:45;;;;;;;5.55;3.25;;;;;;;;;;4951865;29;20039;-68
2021/08/24 17:53:13;;;;;;;5.95;3.50;;;;;;;;;;4951895;29;20110;-68
2021/08/24 17:55:40;;;;;;;6.25;3.53;;;;;;;;;;4951957;29;20043;-68
2021/08/24 17:58:08;;;;;;;7.75;4.07;;;;;;;;;;4951553;29;20098;-68
2021/08/24 18:00:36;;;;;;;6.90;3.72;;;;;;;;;;4951316;28;20526;-68
2021/08/24 18:03:08;;;;;;;5.68;3.53;;;;;;;;;;4951276;29;20440;-68
2021/08/24 18:05:42;;;;;;;4.63;3.25;;;;;;;;;;4951308;29;20164;-68
2021/08/24 18:08:09;;;;;;;5.65;3.30;;;;;;;;;;4951246;29;20057;-67
2021/08/24 18:10:37;;;;;;;6.47;2.95;;;;;;;;;;4950278;28;20059;-67
2021/08/24 18:13:04;;;;;;;5.18;2.95;;;;;;;;;;4951936;29;20062;-67
2021/08/24 18:15:33;;;;;;;6.43;2.88;;;;;;;;;;4951738;29;20054;-69
2021/08/24 18:18:01;;;;;;;4.68;3.53;;;;;;;;;;4951899;29;20046;-69
2021/08/24 18:20:30;;;;;;;5.15;3.60;;;;;;;;;;4951858;28;20059;-66
2021/08/24 18:22:57;;;;;;;4.82;2.85;;;;;;;;;;4951941;29;20050;-66
2021/08/24 18:25:26;;;;;;;9.68;4.03;;;;;;;;;;4951551;29;20123;-67
2021/08/24 18:27:54;;;;;;;5.63;4.10;;;;;;;;;;4951594;29;20051;-67
2021/08/24 18:30:21;;;;;;;14.77;5.18;;;;;;;;;;4951556;28;20043;-67
2021/08/24 18:32:49;;;;;;;8.98;4.22;;;;;;;;;;4951480;29;20126;-67
2021/08/24 18:35:22;;;;;;;7.55;4.35;;;;;;;;;;4951439;29;20050;-67
2021/08/24 18:37:51;;;;;;;5.32;3.95;;;;;;;;;;4951503;29;20403;-67
2021/08/24 18:40:18;;;;;;;9.80;4.72;;;;;;;;;;4951597;28;20054;-68
2021/08/24 18:42:45;;;;;;;10.27;4.80;;;;;;;;;;4951243;29;20043;-69
2021/08/24 18:45:15;;;;;;;9.52;3.70;;;;;;;;;;4951329;29;20514;-69
2021/08/24 18:47:42;;;;;;;5.90;3.55;;;;;;;;;;4950187;29;20123;-68
2021/08/24 18:50:10;;;;;;;6.18;3.60;;;;;;;;;;4950951;28;20365;-68
2021/08/24 18:52:37;;;;;;;7.68;4.18;;;;;;;;;;4950917;29;20051;-69
2021/08/24 18:55:06;;;;;;;8.43;6.50;;;;;;;;;;4950694;29;20407;-68
2021/08/24 18:57:34;;;;;;;8.65;6.97;;;;;;;;;;4950912;29;20055;-68
2021/08/24 19:00:01;;;;;;;13.73;6.20;;;;;;;;;;4951312;28;20077;-68
2021/08/24 19:02:28;;;;;;;5.75;4.60;;;;;;;;;;4951419;29;20415;-68
2021/08/24 19:04:55;;;;;;;8.55;3.60;;;;;;;;;;4950896;29;20133;-68
2021/08/24 19:07:23;;;;;;;4.82;3.50;;;;;;;;;;4951007;29;20043;-68
2021/08/24 19:09:50;;;;;;;8.07;3.50;;;;;;;;;;4951146;28;20054;-68
2021/08/24 19:12:19;;;;;;;6.85;3.10;;;;;;;;;;4952065;29;20053;-68
2021/08/24 19:14:46;;;;;;;7.78;2.90;;;;;;;;;;4951277;29;20410;-68
2021/08/24 19:17:13;;;;;;;5.10;3.30;;;;;;;;;;4950860;29;20039;-68
2021/08/24 19:19:41;;;;;;;6.40;3.63;;;;;;;;;;4950457;28;20672;-68
2021/08/24 19:22:08;;;;;;;8.07;3.35;;;;;;;;;;4951505;29;20044;-68
2021/08/24 19:24:35;;;;;;;5.15;3.63;;;;;;;;;;4950797;29;20415;-68
2021/08/24 19:27:03;;;;;;;5.78;3.50;;;;;;;;;;4951293;29;20050;-68
2021/08/24 19:29:31;;;;;;;6.50;3.28;;;;;;;;;;4950990;28;20059;-68
2021/08/24 19:31:59;;;;;;;7.63;4.57;;;;;;;;;;4950890;29;20047;-68
2021/08/24 19:34:26;;;;;;;8.80;4.10;;;;;;;;;;4950799;29;20351;-68
2021/08/24 19:36:53;;;;;;;5.50;3.88;;;;;;;;;;4950975;29;20042;-69
2021/08/24 19:39:20;;;;;;;6.65;4.50;;;;;;;;;;4950924;28;20418;-68
2021/08/24 19:41:48;;;;;;;5.88;4.10;;;;;;;;;;4950976;29;20122;-68
2021/08/24 19:44:15;;;;;;;5.90;3.88;;;;;;;;;;4950801;29;20051;-68
2021/08/24 19:46:44;;;;;;;7.53;3.65;;;;;;;;;;4951198;29;20113;-68
2021/08/24 19:49:11;;;;;;;8.15;3.95;;;;;;;;;;4950864;28;20047;-68
2021/08/24 19:51:38;;;;;;;6.85;3.53;;;;;;;;;;4950966;29;20051;-68
2021/08/24 19:54:05;;;;;;;8.02;4.00;;;;;;;;;;4951123;28;20062;-68
2021/08/24 19:56:33;;;;;;;7.40;3.78;;;;;;;;;;4950934;29;20066;-68
2021/08/24 19:59:00;;;;;;;8.02;4.30;;;;;;;;;;4953005;28;20066;-68
2021/08/24 20:01:27;;;;;;;5.05;3.72;;;;;;;;;;4954561;29;20045;-68
2021/08/24 20:03:56;;;;;;;7.18;4.25;;;;;;;;;;4954588;29;20051;-68
2021/08/24 20:06:24;;;;;;;4.85;4.07;;;;;;;;;;4954574;29;20496;-69
2021/08/24 20:08:51;;;;;;;7.55;4.72;;;;;;;;;;4954458;28;20383;-69
2021/08/24 20:11:20;;;;;;;6.00;4.22;;;;;;;;;;4954426;29;20431;-68
2021/08/24 20:13:48;;;;;;;10.38;4.32;;;;;;;;;;4954215;29;20047;-68
2021/08/24 20:16:15;;;;;;;9.93;4.63;;;;;;;;;;4954159;29;20488;-68